Time;durP1;ratioP1;P1;durP2;ratioP2;P2;SDS_P1;SDS_P2;PMS_P1;PMS_P2;Temp;Humidity;BMP_temperature;BMP_pressure;BME280_temperature;BME280_humidity;BME280_pressure;Samples;Min_cycle;Max_cycle;Signal;HPM_P1;HPM_P2
2022/09/21 00:00:29;;;;;;;1.80;0.70;;;16.70;99.90;;;;;;5033885;28;20029;-76
2022/09/21 00:02:56;;;;;;;3.85;0.70;;;16.70;99.90;;;;;;5015922;28;20032;-76
2022/09/21 00:05:22;;;;;;;1.45;0.90;;;16.70;99.90;;;;;;5033637;28;20104;-76
2022/09/21 00:07:48;;;;;;;2.08;0.77;;;16.60;99.90;;;;;;5048933;28;20029;-76
2022/09/21 00:10:15;;;;;;;1.67;0.80;;;16.60;99.90;;;;;;5033610;28;20439;-76
2022/09/21 00:12:41;;;;;;;1.02;0.68;;;16.60;99.90;;;;;;5048860;28;20156;-76
2022/09/21 00:15:09;;;;;;;2.70;1.08;;;16.60;99.90;;;;;;5033408;28;20097;-77
2022/09/21 00:17:36;;;;;;;2.45;1.05;;;16.50;99.90;;;;;;5037057;28;20476;-76
2022/09/21 00:20:04;;;;;;;0.88;0.88;;;16.50;99.90;;;;;;5053193;28;20442;-77
2022/09/21 00:22:31;;;;;;;1.38;0.93;;;16.60;99.90;;;;;;5033419;28;20021;-76
2022/09/21 00:24:57;;;;;;;0.82;0.82;;;16.60;99.90;;;;;;5014959;28;20095;-77
2022/09/21 00:27:28;;;;;;;1.63;0.93;;;16.60;99.90;;;;;;5033327;28;20025;-76
2022/09/21 00:29:55;;;;;;;0.88;0.70;;;16.60;99.90;;;;;;5033235;28;20022;-77
2022/09/21 00:32:21;;;;;;;1.65;0.98;;;16.60;99.90;;;;;;5033143;28;20040;-77
2022/09/21 00:34:46;;;;;;;1.08;0.80;;;16.60;99.90;;;;;;5033064;28;20033;-76
2022/09/21 00:37:12;;;;;;;0.90;0.85;;;16.60;99.90;;;;;;5033121;28;20029;-77
2022/09/21 00:39:38;;;;;;;2.13;1.02;;;16.60;99.90;;;;;;5032887;28;20029;-75
2022/09/21 00:42:09;;;;;;;2.05;1.10;;;16.60;99.90;;;;;;5015293;28;20392;-76
2022/09/21 00:44:35;;;;;;;1.05;0.95;;;16.70;99.90;;;;;;5032923;28;20029;-76
2022/09/21 00:47:07;;;;;;;1.67;0.80;;;16.70;99.90;;;;;;5032922;28;20033;-77
2022/09/21 00:49:34;;;;;;;2.08;0.98;;;16.80;99.90;;;;;;5049706;28;20028;-76
2022/09/21 00:52:04;;;;;;;0.90;0.90;;;16.80;99.90;;;;;;5052638;28;20025;-77
2022/09/21 00:54:37;;;;;;;1.77;1.00;;;16.80;99.90;;;;;;5052567;28;20113;-77
2022/09/21 00:57:06;;;;;;;1.63;0.98;;;16.80;99.90;;;;;;5052536;28;20104;-76
2022/09/21 00:59:36;;;;;;;0.95;0.90;;;16.80;99.90;;;;;;5034289;28;20484;-76
2022/09/21 01:02:02;;;;;;;2.10;0.82;;;16.90;99.90;;;;;;5052464;28;20365;-77
2022/09/21 01:04:28;;;;;;;2.83;1.10;;;16.80;99.90;;;;;;5052490;28;20024;-77
2022/09/21 01:06:55;;;;;;;0.98;0.98;;;16.80;99.90;;;;;;5052586;28;20039;-76
2022/09/21 01:09:21;;;;;;;1.00;0.90;;;16.80;99.90;;;;;;5052159;28;20029;-77
2022/09/21 01:12:07;;;;;;;1.80;1.10;;;16.90;99.90;;;;;;5052250;28;20033;-77
2022/09/21 01:14:52;;;;;;;1.17;1.08;;;16.90;99.90;;;;;;5052442;28;20033;-76
2022/09/21 01:17:45;;;;;;;1.73;1.05;;;16.80;99.90;;;;;;5052015;28;20113;-77
2022/09/21 01:20:28;;;;;;;1.08;0.98;;;16.90;99.90;;;;;;5052057;28;20075;-77
2022/09/21 01:23:15;;;;;;;0.90;0.90;;;16.90;99.90;;;;;;5034106;28;20028;-77
2022/09/21 01:25:56;;;;;;;1.48;1.38;;;16.90;99.90;;;;;;5033994;28;20488;-76
2022/09/21 01:28:25;;;;;;;1.27;0.90;;;16.90;99.90;;;;;;5051872;28;20116;-77
2022/09/21 01:30:53;;;;;;;2.00;1.10;;;16.90;99.90;;;;;;5052042;28;20381;-77
2022/09/21 01:33:26;;;;;;;2.45;0.80;;;17.00;99.90;;;;;;5034035;28;20025;-76
2022/09/21 01:36:25;;;;;;;0.75;0.70;;;16.90;99.90;;;;;;5033831;28;20036;-76
2022/09/21 01:38:57;;;;;;;1.50;0.95;;;17.00;99.90;;;;;;5033799;28;20032;-77
2022/09/21 01:41:25;;;;;;;1.05;1.00;;;17.00;99.90;;;;;;5033767;28;20029;-76
2022/09/21 01:44:36;;;;;;;2.00;0.70;;;17.00;99.90;;;;;;5051733;28;20477;-76
2022/09/21 01:47:05;;;;;;;1.13;0.85;;;16.90;99.90;;;;;;5051851;28;20078;-77
2022/09/21 01:49:38;;;;;;;0.70;0.70;;;16.90;99.90;;;;;;5051665;28;20033;-76
2022/09/21 01:52:15;;;;;;;1.13;1.13;;;16.90;99.90;;;;;;5033745;28;20435;-76
2022/09/21 01:54:49;;;;;;;1.10;1.00;;;16.90;99.90;;;;;;5051518;28;20036;-76
2022/09/21 01:57:30;;;;;;;1.02;0.80;;;16.90;99.90;;;;;;5051476;28;20476;-77
2022/09/21 01:59:58;;;;;;;4.32;1.20;;;16.90;99.90;;;;;;5051174;28;20372;-77
2022/09/21 02:02:42;;;;;;;1.20;1.10;;;16.90;99.90;;;;;;5033612;28;20023;-76
2022/09/21 02:05:09;;;;;;;4.43;1.33;;;16.90;99.90;;;;;;5051592;28;20021;-76
2022/09/21 02:07:38;;;;;;;1.75;0.90;;;17.00;99.90;;;;;;5051284;28;20029;-77
2022/09/21 02:10:07;;;;;;;1.80;0.90;;;17.00;99.90;;;;;;5051284;28;20215;-76
2022/09/21 02:12:33;;;;;;;0.90;0.90;;;17.00;99.90;;;;;;5035726;28;20026;-76
2022/09/21 02:15:00;;;;;;;1.05;0.95;;;17.00;99.90;;;;;;5031504;28;20030;-77
2022/09/21 02:17:35;;;;;;;1.10;0.95;;;17.00;99.90;;;;;;5033604;28;20040;-77
2022/09/21 02:20:14;;;;;;;1.15;0.80;;;17.10;99.90;;;;;;5031326;28;20072;-76
2022/09/21 02:23:07;;;;;;;1.67;0.90;;;17.10;99.90;;;;;;5031278;28;20072;-76
2022/09/21 02:25:49;;;;;;;0.60;0.60;;;17.10;99.90;;;;;;5046721;28;20030;-77
2022/09/21 02:28:46;;;;;;;3.90;1.00;;;17.10;99.90;;;;;;5032166;28;20509;-77
2022/09/21 02:31:27;;;;;;;1.05;0.73;;;17.10;99.90;;;;;;5046528;28;20069;-77
2022/09/21 02:34:09;;;;;;;1.07;0.67;;;17.00;99.90;;;;;;5031386;28;20484;-77
2022/09/21 02:36:45;;;;;;;;;;;17.00;99.90;;;;;;5031766;28;20025;-76
2022/09/21 02:39:23;;;;;;;0.70;0.70;;;17.00;99.90;;;;;;5032975;28;20311;-76
2022/09/21 02:41:56;;;;;;;1.13;0.60;;;16.80;99.90;;;;;;5035098;28;20480;-76
2022/09/21 02:44:40;;;;;;;0.57;0.50;;;16.80;99.90;;;;;;5017506;28;20056;-76
2022/09/21 02:47:30;;;;;;;0.60;0.60;;;16.80;99.90;;;;;;5017376;28;20286;-76
2022/09/21 02:50:03;;;;;;;0.77;0.77;;;16.90;99.90;;;;;;5054837;28;20044;-76
2022/09/21 02:52:30;;;;;;;0.73;0.73;;;16.90;99.90;;;;;;5037264;28;20036;-76
2022/09/21 02:54:57;;;;;;;0.80;0.70;;;16.80;99.90;;;;;;5055044;28;20033;-76
2022/09/21 02:57:24;;;;;;;0.60;0.60;;;16.90;99.90;;;;;;5069968;28;20025;-76
2022/09/21 02:59:51;;;;;;;0.82;0.57;;;16.90;99.90;;;;;;5054869;28;20044;-75
2022/09/21 03:02:16;;;;;;;0.75;0.73;;;16.90;99.90;;;;;;5054873;28;20479;-76
2022/09/21 03:04:49;;;;;;;0.60;0.60;;;16.90;99.90;;;;;;5054576;28;20036;-76
2022/09/21 03:07:15;;;;;;;;;;;16.80;99.90;;;;;;5036998;28;20055;-76
2022/09/21 03:09:41;;;;;;;0.50;0.50;;;16.90;99.90;;;;;;5036628;28;19905;-76
2022/09/21 03:12:06;;;;;;;0.85;0.60;;;16.90;99.90;;;;;;5054762;28;20029;-77
2022/09/21 03:14:32;;;;;;;0.90;0.55;;;16.90;99.90;;;;;;5054480;28;20028;-76
2022/09/21 03:16:59;;;;;;;0.65;0.65;;;16.70;99.90;;;;;;5054490;28;20067;-77
2022/09/21 03:19:27;;;;;;;2.05;0.70;;;16.70;99.90;;;;;;5020749;28;20067;-76
2022/09/21 03:21:53;;;;;;;0.50;0.50;;;16.80;99.90;;;;;;5034478;28;20080;-76
2022/09/21 03:24:44;;;;;;;0.45;0.45;;;16.80;99.90;;;;;;5034371;28;20025;-76
2022/09/21 03:27:05;;;;;;;0.43;0.43;;;16.80;99.90;;;;;;5034144;28;20029;-77
2022/09/21 03:29:31;;;;;;;1.60;0.63;;;16.80;99.90;;;;;;5016569;28;20060;-77
2022/09/21 03:31:57;;;;;;;0.55;0.55;;;16.80;99.90;;;;;;5016501;28;20049;-76
2022/09/21 03:34:23;;;;;;;0.77;0.77;;;16.80;99.90;;;;;;5034085;28;20025;-77
2022/09/21 03:36:49;;;;;;;0.55;0.47;;;16.80;99.90;;;;;;5016489;28;20385;-77
2022/09/21 03:39:14;;;;;;;0.50;0.50;;;16.90;99.90;;;;;;5034116;28;20048;-76
2022/09/21 03:41:40;;;;;;;0.40;0.40;;;16.80;99.90;;;;;;5034022;28;20481;-77
2022/09/21 03:44:06;;;;;;;2.05;0.70;;;16.80;99.90;;;;;;5034230;28;20056;-79
2022/09/21 03:46:34;;;;;;;0.85;0.45;;;16.80;99.90;;;;;;5033893;28;20072;-78
2022/09/21 03:49:00;;;;;;;0.60;0.60;;;16.90;99.90;;;;;;5015631;28;20252;-78
2022/09/21 03:51:26;;;;;;;0.82;0.50;;;16.80;99.90;;;;;;5033947;28;20068;-79
2022/09/21 03:53:51;;;;;;;0.85;0.85;;;16.80;99.90;;;;;;5016186;28;20041;-79
2022/09/21 03:56:17;;;;;;;1.27;0.77;;;16.80;99.90;;;;;;5033794;28;20021;-78
2022/09/21 03:58:43;;;;;;;1.58;0.50;;;16.80;99.90;;;;;;5033724;28;20025;-79
2022/09/21 04:01:09;;;;;;;0.60;0.60;;;16.70;99.90;;;;;;5033829;28;20021;-78
2022/09/21 04:03:35;;;;;;;0.68;0.60;;;16.70;99.90;;;;;;5033709;28;20036;-78
2022/09/21 04:06:07;;;;;;;0.50;0.50;;;16.70;99.90;;;;;;5015472;28;20013;-78
2022/09/21 04:08:32;;;;;;;0.80;0.80;;;16.60;99.90;;;;;;5048994;28;20025;-78
2022/09/21 04:10:58;;;;;;;0.52;0.50;;;16.50;99.90;;;;;;5033581;28;20021;-78
2022/09/21 04:13:24;;;;;;;0.70;0.68;;;16.50;99.90;;;;;;5048808;28;20485;-78
2022/09/21 04:15:50;;;;;;;0.95;0.95;;;16.40;99.90;;;;;;5033621;28;20068;-77
2022/09/21 04:18:16;;;;;;;0.60;0.60;;;16.40;99.90;;;;;;5036300;28;20099;-76
2022/09/21 04:20:41;;;;;;;0.45;0.45;;;16.40;99.90;;;;;;5033384;28;20025;-79
2022/09/21 04:23:07;;;;;;;0.50;0.50;;;16.40;99.90;;;;;;5033448;28;20525;-78
2022/09/21 04:25:33;;;;;;;0.75;0.43;;;16.30;99.90;;;;;;5033283;28;20052;-78
2022/09/21 04:27:58;;;;;;;0.50;0.50;;;16.30;99.90;;;;;;5032643;28;20045;-78
2022/09/21 04:30:24;;;;;;;1.60;0.60;;;16.30;99.90;;;;;;5031876;28;20504;-78
2022/09/21 04:32:50;;;;;;;0.60;0.60;;;16.30;99.90;;;;;;5033098;28;20028;-78
2022/09/21 04:35:15;;;;;;;0.60;0.60;;;16.30;99.90;;;;;;5033234;28;20055;-79
2022/09/21 04:37:41;;;;;;;0.70;0.70;;;16.20;99.90;;;;;;5033095;28;20512;-79
2022/09/21 04:40:08;;;;;;;0.47;0.47;;;16.20;99.90;;;;;;5032904;28;20018;-78
2022/09/21 04:42:34;;;;;;;0.60;0.60;;;16.30;99.90;;;;;;5032419;28;20025;-78
2022/09/21 04:44:59;;;;;;;0.40;0.40;;;16.20;99.90;;;;;;5034385;28;20434;-78
2022/09/21 04:47:25;;;;;;;3.60;0.70;;;16.20;99.90;;;;;;5034241;28;20032;-78
2022/09/21 04:49:54;;;;;;;0.50;0.50;;;16.20;99.90;;;;;;5033800;28;20104;-78
2022/09/21 04:52:20;;;;;;;0.70;0.70;;;16.20;99.90;;;;;;5033811;28;20394;-78
2022/09/21 04:54:46;;;;;;;1.85;0.73;;;16.20;99.90;;;;;;5033784;28;20038;-78
2022/09/21 04:57:13;;;;;;;0.43;0.43;;;16.30;99.90;;;;;;5015872;28;20095;-78
2022/09/21 04:59:38;;;;;;;1.52;0.60;;;16.30;99.90;;;;;;5015789;28;20026;-78
2022/09/21 05:02:04;;;;;;;0.70;0.70;;;16.30;99.90;;;;;;5033049;28;20487;-78
2022/09/21 05:04:29;;;;;;;1.00;0.93;;;16.30;99.90;;;;;;5033926;28;20021;-78
2022/09/21 05:06:57;;;;;;;1.63;0.70;;;16.30;99.90;;;;;;5033558;28;20111;-78
2022/09/21 05:12:07;;;;;;;0.70;0.70;;;16.40;99.90;;;;;;5033778;28;20163;-79
2022/09/21 05:14:32;;;;;;;0.55;0.40;;;16.40;99.90;;;;;;5033820;28;20465;-79
2022/09/21 05:16:58;;;;;;;0.55;0.45;;;16.30;99.90;;;;;;5033664;28;20112;-77
2022/09/21 05:19:24;;;;;;;0.75;0.70;;;16.30;99.90;;;;;;5034172;28;20045;-78
2022/09/21 05:21:49;;;;;;;1.38;0.73;;;16.30;99.90;;;;;;5068445;28;20035;-78
2022/09/21 05:24:15;;;;;;;0.50;0.50;;;16.30;99.90;;;;;;5050935;28;20488;-78
2022/09/21 05:26:40;;;;;;;0.60;0.60;;;16.40;99.90;;;;;;5050079;28;20025;-78
2022/09/21 05:29:07;;;;;;;1.70;0.60;;;16.40;99.90;;;;;;5032335;28;20021;-76
2022/09/21 05:31:38;;;;;;;1.52;0.77;;;16.40;99.90;;;;;;5049955;28;20435;-76
2022/09/21 05:34:19;;;;;;;1.95;0.70;;;16.50;99.90;;;;;;5031926;28;20071;-77
2022/09/21 05:36:57;;;;;;;0.73;0.73;;;16.40;99.90;;;;;;5031783;28;20155;-76
2022/09/21 05:39:23;;;;;;;0.98;0.70;;;16.50;99.90;;;;;;5049650;28;20100;-76
2022/09/21 05:41:49;;;;;;;0.73;0.60;;;16.40;99.90;;;;;;5049713;28;20028;-76
2022/09/21 05:44:15;;;;;;;0.40;0.40;;;16.40;99.90;;;;;;5032039;28;20029;-76
2022/09/21 05:46:48;;;;;;;0.70;0.70;;;16.50;99.90;;;;;;5049769;28;20020;-77
2022/09/21 05:49:14;;;;;;;0.60;0.60;;;16.50;99.90;;;;;;5033287;28;20522;-77
2022/09/21 05:52:02;;;;;;;0.88;0.50;;;16.50;99.90;;;;;;5033748;28;20049;-76
2022/09/21 05:54:43;;;;;;;1.55;0.50;;;16.50;99.90;;;;;;5033499;28;20063;-76
2022/09/21 05:57:43;;;;;;;0.98;0.70;;;16.50;99.90;;;;;;5051436;28;20499;-76
2022/09/21 06:00:19;;;;;;;0.80;0.80;;;16.60;99.90;;;;;;5026354;28;20052;-76
2022/09/21 06:03:03;;;;;;;1.67;0.63;;;16.60;99.90;;;;;;5051385;28;20381;-77
2022/09/21 06:05:29;;;;;;;0.80;0.80;;;16.60;99.90;;;;;;5051304;28;20021;-76
2022/09/21 06:07:55;;;;;;;0.70;0.60;;;16.60;99.90;;;;;;5066863;28;20036;-76
2022/09/21 06:10:23;;;;;;;2.15;0.70;;;16.70;99.90;;;;;;5067688;28;20612;-76
2022/09/21 06:12:48;;;;;;;0.70;0.70;;;16.70;99.90;;;;;;5034552;28;20033;-76
2022/09/21 06:15:15;;;;;;;4.13;0.98;;;16.70;99.90;;;;;;5034604;28;20029;-76
2022/09/21 06:17:41;;;;;;;2.13;0.68;;;16.70;99.90;;;;;;5052353;28;20548;-76
2022/09/21 06:20:07;;;;;;;1.13;0.82;;;16.80;99.90;;;;;;5068334;28;20023;-76
2022/09/21 06:22:34;;;;;;;3.95;0.73;;;16.80;99.90;;;;;;5052188;28;20369;-77
2022/09/21 06:24:59;;;;;;;2.78;0.43;;;16.80;99.90;;;;;;5052470;28;20028;-76
2022/09/21 06:27:27;;;;;;;3.67;0.60;;;16.90;99.90;;;;;;5052346;28;20036;-76
2022/09/21 06:29:53;;;;;;;3.70;0.60;;;16.90;99.90;;;;;;5068060;28;20488;-76
2022/09/21 06:32:19;;;;;;;1.40;0.90;;;16.90;99.90;;;;;;5052776;28;20036;-76
2022/09/21 06:34:48;;;;;;;2.13;0.60;;;16.90;99.90;;;;;;5067959;28;20060;-76
2022/09/21 06:37:14;;;;;;;1.77;0.60;;;16.90;99.90;;;;;;5067904;28;20040;-76
2022/09/21 06:39:40;;;;;;;3.22;0.50;;;16.90;99.90;;;;;;5052537;28;20018;-76
2022/09/21 06:42:06;;;;;;;0.65;0.65;;;16.90;99.90;;;;;;5052514;28;20028;-77
2022/09/21 06:44:31;;;;;;;6.07;0.73;;;17.00;99.90;;;;;;5052411;28;20519;-77
2022/09/21 06:46:57;;;;;;;3.58;1.33;;;17.00;99.90;;;;;;5052344;28;20133;-77
2022/09/21 06:49:23;;;;;;;1.25;0.77;;;17.00;99.90;;;;;;5052331;28;20107;-77
2022/09/21 06:51:48;;;;;;;0.73;0.73;;;17.00;99.90;;;;;;5052303;28;20033;-77
2022/09/21 06:54:14;;;;;;;3.10;0.65;;;17.10;99.90;;;;;;5052369;28;20480;-76
2022/09/21 06:56:42;;;;;;;1.27;0.60;;;17.10;99.90;;;;;;5067524;28;20028;-78
2022/09/21 06:59:08;;;;;;;0.55;0.40;;;17.20;99.90;;;;;;5052183;28;20032;-78
2022/09/21 07:01:33;;;;;;;4.10;0.50;;;17.20;99.90;;;;;;5067744;28;20025;-77
2022/09/21 07:03:59;;;;;;;0.50;0.50;;;17.20;99.90;;;;;;5067616;28;20527;-78
2022/09/21 07:06:28;;;;;;;0.82;0.40;;;17.30;99.90;;;;;;5052205;28;20492;-78
2022/09/21 07:08:55;;;;;;;0.40;0.40;;;17.30;99.90;;;;;;5052078;28;20670;-77
2022/09/21 07:11:24;;;;;;;0.50;0.38;;;17.30;99.90;;;;;;5052208;28;20029;-78
2022/09/21 07:13:51;;;;;;;0.45;0.32;;;17.40;99.90;;;;;;5067570;28;20116;-77
2022/09/21 07:16:18;;;;;;;0.38;0.38;;;17.40;99.90;;;;;;5064342;28;20025;-77
2022/09/21 07:18:44;;;;;;;1.40;0.30;;;17.50;99.90;;;;;;5053829;28;20378;-77
2022/09/21 07:21:13;;;;;;;0.30;0.30;;;17.50;99.90;;;;;;5028871;28;20033;-77
2022/09/21 07:23:39;;;;;;;4.38;0.40;;;17.50;99.90;;;;;;5011127;28;20451;-78
2022/09/21 07:26:08;;;;;;;0.80;0.45;;;17.60;99.90;;;;;;5013995;28;20110;-77
2022/09/21 07:28:34;;;;;;;0.93;0.30;;;17.60;99.90;;;;;;5032375;28;20484;-77
2022/09/21 07:31:08;;;;;;;1.13;0.32;;;17.60;99.90;;;;;;5034335;28;20057;-78
2022/09/21 07:33:35;;;;;;;0.45;0.40;;;17.60;99.90;;;;;;5034085;28;20497;-78
2022/09/21 07:36:02;;;;;;;0.50;0.38;;;17.60;99.90;;;;;;5016620;28;20067;-78
2022/09/21 07:38:28;;;;;;;0.30;0.30;;;17.70;99.90;;;;;;5034237;28;20022;-78
2022/09/21 07:40:54;;;;;;;1.88;0.68;;;17.70;99.90;;;;;;5034035;28;20508;-77
2022/09/21 07:43:20;;;;;;;0.60;0.35;;;17.70;99.90;;;;;;5034201;28;20026;-77
2022/09/21 07:45:55;;;;;;;1.55;0.30;;;17.70;99.90;;;;;;5016250;28;20026;-78
2022/09/21 07:48:24;;;;;;;0.47;0.47;;;17.80;99.90;;;;;;5033957;28;20029;-78
2022/09/21 07:50:49;;;;;;;0.38;0.38;;;17.90;99.90;;;;;;5016153;28;20044;-78
2022/09/21 07:53:16;;;;;;;1.70;0.50;;;18.00;99.90;;;;;;5016145;28;20055;-77
2022/09/21 07:55:42;;;;;;;0.30;0.30;;;18.00;99.90;;;;;;5033809;28;20493;-78
2022/09/21 08:00:53;;;;;;;0.40;0.40;;;18.00;99.10;;;;;;5034084;28;20064;-77
2022/09/21 08:03:19;;;;;;;0.40;0.40;;;18.00;99.90;;;;;;5033662;28;20433;-78
2022/09/21 08:05:44;;;;;;;1.05;0.32;;;18.00;99.80;;;;;;5015940;28;20108;-78
2022/09/21 08:08:10;;;;;;;0.40;0.40;;;18.00;99.90;;;;;;5015738;28;20026;-78
2022/09/21 08:10:36;;;;;;;0.20;0.20;;;18.10;99.90;;;;;;5033496;28;20477;-77
2022/09/21 08:13:02;;;;;;;0.55;0.40;;;18.00;97.30;;;;;;5033607;28;20022;-78
2022/09/21 08:15:28;;;;;;;1.77;0.40;;;18.10;98.90;;;;;;5016009;28;20083;-78
2022/09/21 08:17:57;;;;;;;1.73;0.43;;;18.20;99.20;;;;;;5039196;28;20044;-77
2022/09/21 08:20:23;;;;;;;1.77;0.40;;;18.20;98.30;;;;;;5053328;28;20017;-77
2022/09/21 08:22:49;;;;;;;0.30;0.30;;;18.30;98.30;;;;;;5034465;28;20018;-78
2022/09/21 08:25:15;;;;;;;0.93;0.38;;;18.30;99.20;;;;;;5015533;28;20029;-77
2022/09/21 08:27:41;;;;;;;3.03;0.40;;;18.30;99.90;;;;;;5015470;28;20030;-78
2022/09/21 08:30:07;;;;;;;0.20;0.20;;;18.30;99.90;;;;;;5033234;28;20048;-78
2022/09/21 08:32:33;;;;;;;1.70;0.40;;;18.30;99.90;;;;;;5015702;28;20079;-78
2022/09/21 08:34:59;;;;;;;1.05;0.32;;;18.20;99.00;;;;;;5033212;28;20508;-78
2022/09/21 08:37:25;;;;;;;0.25;0.25;;;18.10;98.50;;;;;;5033130;28;20485;-78
2022/09/21 08:39:51;;;;;;;7.43;0.57;;;18.10;98.80;;;;;;5015142;28;20117;-77
2022/09/21 08:42:32;;;;;;;0.38;0.30;;;18.10;98.00;;;;;;5033034;28;20051;-78
2022/09/21 08:45:09;;;;;;;2.58;0.30;;;18.10;99.50;;;;;;5015288;28;20036;-77
2022/09/21 08:47:51;;;;;;;0.80;0.40;;;18.00;97.90;;;;;;5033193;28;20496;-78
2022/09/21 08:50:41;;;;;;;1.95;0.47;;;18.10;98.40;;;;;;5052984;28;20031;-78
2022/09/21 08:53:11;;;;;;;0.45;0.45;;;18.10;98.30;;;;;;5052731;28;20028;-77
2022/09/21 08:55:37;;;;;;;0.43;0.43;;;18.10;98.00;;;;;;5052747;28;20025;-77
2022/09/21 08:58:05;;;;;;;1.70;0.45;;;18.10;98.50;;;;;;5052435;28;20046;-77
2022/09/21 09:00:36;;;;;;;0.52;0.50;;;18.20;98.10;;;;;;5052604;28;20032;-77
2022/09/21 09:03:27;;;;;;;1.83;0.30;;;18.30;98.80;;;;;;5052549;28;20013;-77
2022/09/21 09:06:02;;;;;;;0.30;0.30;;;18.20;97.20;;;;;;5034682;28;20009;-77
2022/09/21 09:08:48;;;;;;;0.43;0.40;;;18.30;97.30;;;;;;5034526;28;20139;-77
2022/09/21 09:11:17;;;;;;;2.47;0.47;;;18.30;98.40;;;;;;5034582;28;20134;-77
2022/09/21 09:14:04;;;;;;;0.90;0.50;;;18.40;96.60;;;;;;5052420;28;20384;-77
2022/09/21 09:16:57;;;;;;;0.45;0.45;;;18.40;97.00;;;;;;5052367;28;20053;-77
2022/09/21 09:19:58;;;;;;;2.78;0.52;;;18.40;97.10;;;;;;5051778;28;20122;-78
2022/09/21 09:22:33;;;;;;;0.43;0.43;;;18.50;97.60;;;;;;5018393;28;20045;-78
2022/09/21 09:25:14;;;;;;;0.40;0.40;;;18.60;97.60;;;;;;5052130;28;20546;-78
2022/09/21 09:27:43;;;;;;;0.40;0.32;;;18.70;96.70;;;;;;5051913;28;20017;-78
2022/09/21 09:30:17;;;;;;;0.45;0.30;;;18.70;96.00;;;;;;5051898;28;20025;-78
2022/09/21 09:32:52;;;;;;;0.47;0.47;;;18.80;96.10;;;;;;5033981;28;20125;-78
2022/09/21 09:35:38;;;;;;;1.08;0.38;;;18.80;96.40;;;;;;5052001;28;20035;-78
2022/09/21 09:38:13;;;;;;;1.25;0.60;;;18.90;94.70;;;;;;5035137;28;20021;-77
2022/09/21 09:40:48;;;;;;;0.40;0.40;;;18.90;94.70;;;;;;5052977;28;20362;-78
2022/09/21 09:43:24;;;;;;;0.63;0.38;;;18.90;95.30;;;;;;5053202;28;20028;-77
2022/09/21 09:46:16;;;;;;;0.30;0.30;;;18.90;95.50;;;;;;5053013;28;20021;-77
2022/09/21 09:48:48;;;;;;;0.65;0.65;;;19.00;96.00;;;;;;5052666;28;20083;-77
2022/09/21 09:51:13;;;;;;;1.10;0.40;;;19.10;95.30;;;;;;5034860;28;20036;-77
2022/09/21 09:53:40;;;;;;;1.00;0.63;;;19.00;94.60;;;;;;5052975;28;20107;-77
2022/09/21 09:56:09;;;;;;;0.50;0.40;;;18.90;93.90;;;;;;5053184;28;20132;-78
2022/09/21 09:58:56;;;;;;;3.35;0.60;;;19.00;94.80;;;;;;5035040;28;20082;-77
2022/09/21 10:01:47;;;;;;;0.70;0.70;;;19.00;97.30;;;;;;5052719;28;20024;-75
2022/09/21 10:04:16;;;;;;;1.23;1.10;;;19.10;97.30;;;;;;5052895;28;20104;-75
2022/09/21 10:06:45;;;;;;;0.40;0.40;;;19.20;99.40;;;;;;5034529;28;20024;-74
2022/09/21 10:09:32;;;;;;;0.68;0.45;;;19.20;93.90;;;;;;5052485;28;20028;-74
2022/09/21 10:12:22;;;;;;;0.35;0.35;;;19.30;94.60;;;;;;5052729;28;20026;-74
2022/09/21 10:14:55;;;;;;;1.80;0.50;;;19.30;93.70;;;;;;5052560;28;20047;-74
2022/09/21 10:17:23;;;;;;;0.40;0.40;;;19.40;93.90;;;;;;5052322;28;20399;-74
2022/09/21 10:19:59;;;;;;;0.45;0.40;;;19.40;94.20;;;;;;5033233;28;20079;-74
2022/09/21 10:22:27;;;;;;;0.63;0.40;;;19.50;93.20;;;;;;5012703;28;20029;-74
2022/09/21 10:24:55;;;;;;;0.55;0.55;;;19.60;94.60;;;;;;5013792;28;20044;-74
2022/09/21 10:27:30;;;;;;;0.30;0.30;;;19.70;94.50;;;;;;5030676;28;20117;-73
2022/09/21 10:29:56;;;;;;;1.20;0.40;;;19.70;94.70;;;;;;5031588;28;20147;-74
2022/09/21 10:32:26;;;;;;;0.38;0.32;;;19.70;93.10;;;;;;5031256;28;20432;-74
2022/09/21 10:35:02;;;;;;;0.55;0.55;;;19.60;92.60;;;;;;5029242;28;20477;-74
2022/09/21 10:37:40;;;;;;;2.35;0.40;;;19.60;94.00;;;;;;5011646;28;20124;-74
2022/09/21 10:40:18;;;;;;;0.50;0.50;;;19.80;93.70;;;;;;5011788;28;20158;-74
2022/09/21 10:42:45;;;;;;;1.23;0.50;;;19.90;94.10;;;;;;5029480;28;20104;-74
2022/09/21 10:45:19;;;;;;;0.50;0.50;;;20.00;94.80;;;;;;5029383;28;20759;-73
2022/09/21 10:48:24;;;;;;;0.50;0.43;;;20.20;95.40;;;;;;5013364;28;20033;-74
2022/09/21 10:50:52;;;;;;;0.40;0.40;;;20.30;91.70;;;;;;4989744;28;20030;-73
2022/09/21 10:53:29;;;;;;;0.50;0.50;;;20.30;91.20;;;;;;4973354;28;20022;-74
2022/09/21 10:56:03;;;;;;;0.82;0.40;;;20.40;91.70;;;;;;5024624;28;20124;-75
2022/09/21 10:58:29;;;;;;;0.32;0.32;;;20.40;90.80;;;;;;5051448;28;20022;-73
2022/09/21 11:01:12;;;;;;;0.43;0.43;;;20.50;91.80;;;;;;5054812;28;20075;-74
2022/09/21 11:03:46;;;;;;;0.80;0.30;;;20.40;91.40;;;;;;5037786;28;20535;-74
2022/09/21 11:06:36;;;;;;;1.25;0.40;;;20.20;90.30;;;;;;5055662;28;20025;-74
2022/09/21 11:09:11;;;;;;;1.67;0.38;;;20.30;91.10;;;;;;5055613;28;20025;-74
2022/09/21 11:11:38;;;;;;;0.50;0.50;;;20.40;90.70;;;;;;5055305;28;20082;-74
2022/09/21 11:14:11;;;;;;;0.55;0.45;;;20.40;90.80;;;;;;5055040;28;20035;-73
2022/09/21 11:16:54;;;;;;;2.78;0.20;;;20.40;89.60;;;;;;5055111;28;20044;-74
2022/09/21 11:19:24;;;;;;;0.40;0.40;;;20.60;90.20;;;;;;5036744;28;20439;-73
2022/09/21 11:22:15;;;;;;;0.73;0.57;;;20.70;90.30;;;;;;5054930;28;20025;-74
2022/09/21 11:24:52;;;;;;;0.40;0.40;;;20.80;91.30;;;;;;5036755;28;20116;-74
2022/09/21 11:27:32;;;;;;;6.10;0.50;;;20.80;90.20;;;;;;5054405;28;20778;-74
2022/09/21 11:30:17;;;;;;;1.10;0.40;;;20.70;90.30;;;;;;5054529;28;20029;-73
2022/09/21 11:33:08;;;;;;;0.82;0.38;;;20.80;91.00;;;;;;5054465;28;20021;-73
2022/09/21 11:36:14;;;;;;;1.35;0.45;;;20.80;90.30;;;;;;5054421;28;20083;-74
2022/09/21 11:38:59;;;;;;;0.50;0.50;;;21.00;89.30;;;;;;5054210;28;20025;-74
2022/09/21 11:41:49;;;;;;;0.43;0.38;;;21.10;90.20;;;;;;5054068;28;20048;-74
2022/09/21 11:44:32;;;;;;;0.45;0.45;;;21.10;87.80;;;;;;5054312;28;20404;-74
2022/09/21 11:47:16;;;;;;;0.82;0.40;;;21.00;85.60;;;;;;5054107;28;20028;-74
2022/09/21 11:50:05;;;;;;;1.73;0.70;;;21.10;88.80;;;;;;5053828;28;20032;-74
2022/09/21 11:52:58;;;;;;;2.85;0.55;;;21.30;86.40;;;;;;5054233;28;20032;-73
2022/09/21 11:55:36;;;;;;;0.47;0.45;;;21.10;86.30;;;;;;5043178;28;20037;-74
2022/09/21 11:58:14;;;;;;;1.85;0.50;;;20.90;82.60;;;;;;5053591;28;20400;-74
2022/09/21 12:00:47;;;;;;;3.53;0.50;;;20.70;81.90;;;;;;5053877;28;20013;-74
2022/09/21 12:03:12;;;;;;;0.55;0.40;;;20.70;85.20;;;;;;5036037;28;20025;-74
2022/09/21 12:05:41;;;;;;;0.35;0.35;;;20.80;87.80;;;;;;5054049;28;20052;-74
2022/09/21 12:08:16;;;;;;;1.98;0.60;;;20.90;86.00;;;;;;5035859;28;20480;-73
2022/09/21 12:11:12;;;;;;;1.02;0.63;;;20.70;83.60;;;;;;5053436;28;20059;-73
2022/09/21 12:13:41;;;;;;;0.63;0.60;;;20.70;85.60;;;;;;5053615;28;20021;-73
2022/09/21 12:16:22;;;;;;;0.43;0.43;;;20.70;84.60;;;;;;5050545;28;20029;-74
2022/09/21 12:19:06;;;;;;;1.42;0.60;;;20.70;83.90;;;;;;5041640;28;20048;-73
2022/09/21 12:21:58;;;;;;;0.63;0.35;;;20.90;84.80;;;;;;5053666;28;20028;-73
2022/09/21 12:24:32;;;;;;;0.60;0.60;;;21.10;84.60;;;;;;5053304;28;20028;-74
2022/09/21 12:27:10;;;;;;;0.60;0.50;;;21.30;84.10;;;;;;5053307;28;20057;-74
2022/09/21 12:29:46;;;;;;;0.60;0.60;;;21.20;85.10;;;;;;5035489;28;20028;-74
2022/09/21 12:32:30;;;;;;;1.25;0.60;;;21.20;84.40;;;;;;5053274;28;20029;-74
2022/09/21 12:35:03;;;;;;;1.67;0.60;;;21.30;88.90;;;;;;5053263;28;20112;-73
2022/09/21 12:37:43;;;;;;;1.17;0.50;;;21.20;85.60;;;;;;5052937;28;20130;-74
2022/09/21 12:40:30;;;;;;;4.88;0.50;;;21.10;85.10;;;;;;5053254;28;20025;-74
2022/09/21 12:43:14;;;;;;;1.55;0.60;;;21.10;85.10;;;;;;5053155;28;20090;-74
2022/09/21 12:46:02;;;;;;;0.45;0.40;;;21.20;83.30;;;;;;5052912;28;20021;-73
2022/09/21 12:48:32;;;;;;;1.05;0.47;;;21.10;83.90;;;;;;5052650;28;20111;-73
2022/09/21 12:51:21;;;;;;;1.52;0.60;;;21.10;83.30;;;;;;5032976;28;20024;-74
2022/09/21 12:53:52;;;;;;;0.88;0.45;;;21.10;84.20;;;;;;5028475;28;20022;-74
2022/09/21 12:56:45;;;;;;;0.50;0.50;;;21.20;82.10;;;;;;5029223;28;20099;-73
2022/09/21 12:59:44;;;;;;;0.40;0.40;;;21.40;81.60;;;;;;5047922;28;20106;-75
2022/09/21 13:02:42;;;;;;;3.85;0.40;;;21.30;85.70;;;;;;5048445;28;20024;-74
2022/09/21 13:05:20;;;;;;;1.55;0.57;;;21.50;83.80;;;;;;5046967;28;20017;-73
2022/09/21 13:08:03;;;;;;;2.00;0.47;;;21.60;80.30;;;;;;5041562;28;20040;-74
2022/09/21 13:10:58;;;;;;;0.60;0.40;;;21.70;78.70;;;;;;5048614;28;20075;-74
2022/09/21 13:13:30;;;;;;;0.65;0.30;;;21.80;78.00;;;;;;5028985;28;20029;-74
2022/09/21 13:15:58;;;;;;;;;;;21.80;79.60;;;;;;5048416;28;20060;-75
2022/09/21 13:18:33;;;;;;;0.32;0.22;;;21.70;77.20;;;;;;5029921;28;20292;-74
2022/09/21 13:21:25;;;;;;;0.60;0.55;;;21.50;78.60;;;;;;5029984;28;20677;-74